createdAt,value
2023-04-03T00:01:21.595Z,2.93
2023-04-03T00:03:49.401Z,1.60
2023-04-03T00:06:17.128Z,1.87
2023-04-03T00:08:46.235Z,2.20
2023-04-03T00:11:14.052Z,1.70
2023-04-03T00:13:41.978Z,2.10
2023-04-03T00:16:11.163Z,2.57
2023-04-03T00:18:41.807Z,2.33
2023-04-03T00:21:11.550Z,2.57
2023-04-03T00:23:39.315Z,1.90
2023-04-03T00:26:08.370Z,2.33
2023-04-03T00:28:36.116Z,2.57
2023-04-03T00:31:04.039Z,2.27
2023-04-03T00:33:31.759Z,1.90
2023-04-03T00:35:59.484Z,2.13
2023-04-03T00:38:27.323Z,2.47
2023-04-03T00:40:55.027Z,2.67
2023-04-03T00:43:25.944Z,2.00
2023-04-03T00:45:54.878Z,1.77
2023-04-03T00:48:26.304Z,2.07
2023-04-03T00:50:54.640Z,2.03
2023-04-03T00:53:27.626Z,1.93
2023-04-03T00:55:56.873Z,2.00
2023-04-03T00:58:33.731Z,2.53
2023-04-03T01:01:08.598Z,2.10
2023-04-03T01:03:37.068Z,2.80
2023-04-03T01:06:05.964Z,2.30
2023-04-03T01:08:33.903Z,2.43
2023-04-03T01:11:01.830Z,2.03
2023-04-03T01:13:33.110Z,2.17
2023-04-03T01:16:03.887Z,2.10
2023-04-03T01:18:33.021Z,1.90
2023-04-03T01:21:30.690Z,2.10
2023-04-03T01:24:18.499Z,1.90
2023-04-03T01:26:46.975Z,2.63
2023-04-03T01:29:16.478Z,2.70
2023-04-03T01:31:54.390Z,2.03
2023-04-03T01:34:22.848Z,3.00
2023-04-03T01:36:51.531Z,2.40
2023-04-03T01:39:19.674Z,1.90
2023-04-03T01:41:47.572Z,2.17
2023-04-03T01:44:16.391Z,1.97
2023-04-03T01:46:44.232Z,2.07
2023-04-03T01:49:13.288Z,1.93
2023-04-03T01:51:41.046Z,2.40
2023-04-03T01:54:08.881Z,2.67
2023-04-03T01:56:36.612Z,2.37
2023-04-03T01:59:04.439Z,1.97
2023-04-03T02:01:32.198Z,2.30
2023-04-03T02:03:59.944Z,2.00
2023-04-03T02:06:29.028Z,2.10
2023-04-03T02:08:56.745Z,3.13
2023-04-03T02:11:24.453Z,2.17
2023-04-03T02:13:52.189Z,2.20
2023-04-03T02:16:19.929Z,2.80
2023-04-03T02:18:47.879Z,1.97
2023-04-03T02:21:15.570Z,3.03
2023-04-03T02:23:44.658Z,2.00
2023-04-03T02:26:14.588Z,2.20
2023-04-03T02:28:42.932Z,2.20
2023-04-03T02:31:11.953Z,2.33
2023-04-03T02:33:40.105Z,2.47
2023-04-03T02:36:09.390Z,2.07
2023-04-03T02:38:37.255Z,2.00
2023-04-03T02:41:08.312Z,2.17
2023-04-03T02:43:36.627Z,2.37
2023-04-03T02:46:04.917Z,2.40
2023-04-03T02:48:32.666Z,1.90
2023-04-03T02:51:00.536Z,2.10
2023-04-03T02:53:28.258Z,2.30
2023-04-03T02:55:55.981Z,2.37
2023-04-03T02:58:25.055Z,2.20
2023-04-03T03:00:52.755Z,2.40
2023-04-03T03:03:20.518Z,2.00
2023-04-03T03:05:49.045Z,2.40
2023-04-03T03:08:16.843Z,2.37
2023-04-03T03:10:44.565Z,2.43
2023-04-03T03:13:12.302Z,2.97
2023-04-03T03:15:41.324Z,3.33
2023-04-03T03:18:09.105Z,3.00
2023-04-03T03:20:37.049Z,2.47
2023-04-03T03:23:05.242Z,2.33
2023-04-03T03:25:32.978Z,2.37
2023-04-03T03:28:00.693Z,2.40
2023-04-03T03:30:28.385Z,2.20
2023-04-03T03:32:57.437Z,2.87
2023-04-03T03:35:25.425Z,3.23
2023-04-03T03:37:53.231Z,2.57
2023-04-03T03:40:20.934Z,2.43
2023-04-03T03:42:48.674Z,2.80
2023-04-03T03:45:16.550Z,2.40
2023-04-03T03:47:44.355Z,2.40
2023-04-03T03:50:13.650Z,2.43
2023-04-03T03:52:41.679Z,2.20
2023-04-03T03:55:09.970Z,2.63
2023-04-03T03:57:37.757Z,2.50
2023-04-03T04:00:06.596Z,2.67
2023-04-03T04:02:34.579Z,2.13
2023-04-03T04:05:02.471Z,2.23
2023-04-03T04:07:31.520Z,2.13
2023-04-03T04:09:59.273Z,2.00
2023-04-03T04:12:27.027Z,2.50
2023-04-03T04:14:54.746Z,2.63
2023-04-03T04:17:23.074Z,2.13
2023-04-03T04:19:50.934Z,2.87
2023-04-03T04:22:18.706Z,2.37
2023-04-03T04:24:47.863Z,2.30
2023-04-03T04:27:16.537Z,2.10
2023-04-03T04:29:44.286Z,2.40
2023-04-03T04:32:12.092Z,2.40
2023-04-03T04:34:40.000Z,2.13
2023-04-03T04:37:07.825Z,2.00
2023-04-03T04:39:35.662Z,2.70
2023-04-03T04:42:04.788Z,2.50
2023-04-03T04:44:32.505Z,2.37
2023-04-03T04:47:00.461Z,2.70
2023-04-03T04:49:28.213Z,2.30
2023-04-03T04:51:55.905Z,2.27
2023-04-03T04:54:23.636Z,2.50
2023-04-03T04:56:51.395Z,2.87
2023-04-03T04:59:21.977Z,2.50
2023-04-03T05:01:49.929Z,3.03
2023-04-03T05:04:18.418Z,2.37
2023-04-03T05:06:46.295Z,3.60
2023-04-03T05:09:14.263Z,2.43
2023-04-03T05:11:41.964Z,2.17
2023-04-03T05:14:09.728Z,2.40
2023-04-03T05:16:38.882Z,1.97
2023-04-03T05:19:06.785Z,2.37
2023-04-03T05:21:34.617Z,2.57
2023-04-03T05:24:03.778Z,2.47
2023-04-03T05:26:32.653Z,2.73
2023-04-03T05:29:00.585Z,2.40
2023-04-03T05:31:30.329Z,2.90
2023-04-03T05:34:00.021Z,2.97
2023-04-03T05:36:27.862Z,3.67
2023-04-03T05:38:57.145Z,5.00
2023-04-03T05:41:25.075Z,3.63
2023-04-03T05:43:53.092Z,3.57
2023-04-03T05:46:23.075Z,3.90
2023-04-03T05:48:51.442Z,4.13
2023-04-03T05:51:23.667Z,3.97
2023-04-03T05:53:56.991Z,3.20
2023-04-03T05:56:24.793Z,3.07
2023-04-03T05:58:52.500Z,2.95
2023-04-03T06:01:20.359Z,3.53
2023-04-03T06:03:48.181Z,3.50
2023-04-03T06:06:16.394Z,2.60
2023-04-03T06:08:45.556Z,2.80
2023-04-03T06:11:13.320Z,2.20
2023-04-03T06:13:41.047Z,3.80
2023-04-03T06:16:10.550Z,3.43
2023-04-03T06:18:38.292Z,2.80
2023-04-03T06:21:08.662Z,2.47
2023-04-03T06:23:36.646Z,2.70
2023-04-03T06:26:06.481Z,2.83
2023-04-03T06:28:34.228Z,2.43
2023-04-03T06:31:02.078Z,2.67
2023-04-03T06:33:29.813Z,2.37
2023-04-03T06:35:59.558Z,2.30
2023-04-03T06:38:27.453Z,2.00
2023-04-03T06:40:55.189Z,2.63
2023-04-03T06:43:25.251Z,2.50
2023-04-03T06:45:53.012Z,2.27
2023-04-03T06:48:20.885Z,2.37
2023-04-03T06:50:48.595Z,2.37
2023-04-03T06:53:16.681Z,2.47
2023-04-03T06:55:44.857Z,2.10
2023-04-03T06:58:12.592Z,2.40
2023-04-03T07:00:41.875Z,2.10
2023-04-03T07:03:09.641Z,2.70
2023-04-03T07:05:37.585Z,2.40
2023-04-03T07:08:05.774Z,2.20
2023-04-03T07:10:33.537Z,3.30
2023-04-03T07:13:02.526Z,2.10
2023-04-03T07:15:30.776Z,2.30
2023-04-03T07:17:59.848Z,2.30
2023-04-03T07:20:27.627Z,2.70
2023-04-03T07:22:55.429Z,2.30
2023-04-03T07:25:23.170Z,2.67
2023-04-03T07:27:51.146Z,2.70
2023-04-03T07:30:19.674Z,2.50
2023-04-03T07:32:47.440Z,2.10
2023-04-03T07:35:17.295Z,3.20
2023-04-03T07:37:45.329Z,2.47
2023-04-03T07:40:13.749Z,2.20
2023-04-03T07:42:41.438Z,1.83
2023-04-03T07:45:10.193Z,2.07
2023-04-03T07:47:37.956Z,2.63
2023-04-03T07:50:06.393Z,2.77
2023-04-03T07:52:35.418Z,1.87
2023-04-03T07:55:03.185Z,2.47
2023-04-03T07:57:30.903Z,2.10
2023-04-03T07:59:58.653Z,2.37
2023-04-03T08:02:26.570Z,2.53
2023-04-03T08:04:54.600Z,2.30
2023-04-03T08:07:22.530Z,2.00
2023-04-03T08:09:51.750Z,2.47
2023-04-03T08:12:19.959Z,2.77
2023-04-03T08:14:47.784Z,2.43
2023-04-03T08:17:15.857Z,2.20
2023-04-03T08:19:43.560Z,2.40
2023-04-03T08:22:11.609Z,2.10
2023-04-03T08:24:43.143Z,1.83
2023-04-03T08:27:18.420Z,1.77
2023-04-03T08:29:46.628Z,2.03
2023-04-03T08:32:14.388Z,2.70
2023-04-03T08:34:42.321Z,1.70
2023-04-03T08:37:10.035Z,1.97
2023-04-03T08:39:37.860Z,1.80
2023-04-03T08:42:16.437Z,1.77
2023-04-03T08:44:49.792Z,1.90
2023-04-03T08:47:26.299Z,1.87
2023-04-03T08:49:57.795Z,1.87
2023-04-03T08:52:31.903Z,1.67
2023-04-03T08:55:02.607Z,1.70
2023-04-03T08:57:33.520Z,1.90
2023-04-03T09:00:06.816Z,2.00
2023-04-03T09:02:42.088Z,2.20
2023-04-03T09:05:14.755Z,1.87
2023-04-03T09:07:48.434Z,2.30
2023-04-03T09:10:21.791Z,1.53
2023-04-03T09:12:55.721Z,2.40
2023-04-03T09:15:37.973Z,2.53
2023-04-03T09:18:15.530Z,1.60
2023-04-03T09:20:48.557Z,1.50
2023-04-03T09:23:22.530Z,1.60
2023-04-03T09:25:51.896Z,1.77
2023-04-03T09:28:19.660Z,2.20
2023-04-03T09:30:48.796Z,2.27
2023-04-03T09:33:17.474Z,2.13
2023-04-03T09:35:48.664Z,2.40
2023-04-03T09:38:19.882Z,1.90
2023-04-03T09:40:50.152Z,2.53
2023-04-03T09:43:27.047Z,1.43
2023-04-03T09:45:57.557Z,1.30
2023-04-03T09:48:26.652Z,1.90
2023-04-03T09:51:00.675Z,1.60
2023-04-03T09:53:32.218Z,1.63
2023-04-03T09:56:01.322Z,1.53
2023-04-03T09:58:42.573Z,1.67
2023-04-03T10:01:28.341Z,1.53
2023-04-03T10:04:11.815Z,1.70
2023-04-03T10:06:44.311Z,1.30
2023-04-03T10:09:22.056Z,1.47
2023-04-03T10:12:02.088Z,2.47
2023-04-03T10:14:30.024Z,1.87
2023-04-03T10:17:07.850Z,1.67
2023-04-03T10:19:41.265Z,1.20
2023-04-03T10:22:21.826Z,2.03
2023-04-03T10:25:02.195Z,1.43
2023-04-03T10:27:40.913Z,1.87
2023-04-03T10:30:22.812Z,2.10
2023-04-03T10:33:00.479Z,1.33
2023-04-03T10:35:41.402Z,1.65
2023-04-03T10:38:17.699Z,1.70
2023-04-03T10:40:53.344Z,2.00
2023-04-03T10:43:31.240Z,1.63
2023-04-03T10:46:04.150Z,1.40
2023-04-03T10:48:46.771Z,1.50
2023-04-03T10:51:24.860Z,1.93
2023-04-03T10:53:58.994Z,1.90
2023-04-03T10:56:34.072Z,1.53
2023-04-03T10:59:13.902Z,1.27
2023-04-03T11:01:46.194Z,1.57
2023-04-03T11:04:18.092Z,1.57
2023-04-03T11:06:51.840Z,1.20
2023-04-03T11:09:26.156Z,1.70
2023-04-03T11:11:57.590Z,2.10
2023-04-03T11:14:29.684Z,1.90
2023-04-03T11:17:21.143Z,1.80
2023-04-03T11:19:59.149Z,2.13
2023-04-03T11:22:31.152Z,1.70
2023-04-03T11:25:08.879Z,1.57
2023-04-03T11:27:42.190Z,1.30
2023-04-03T11:30:18.804Z,1.67
2023-04-03T11:33:22.773Z,1.57
2023-04-03T11:35:55.301Z,1.97
2023-04-03T11:38:30.286Z,1.48
2023-04-03T11:40:59.231Z,1.50
2023-04-03T11:43:30.167Z,1.60
2023-04-03T11:46:01.773Z,1.60
2023-04-03T11:48:49.045Z,1.33
2023-04-03T11:51:44.158Z,2.10
2023-04-03T11:54:44.024Z,1.50
2023-04-03T11:57:47.970Z,1.53
2023-04-03T12:00:51.583Z,1.67
2023-04-03T12:03:53.198Z,1.73
2023-04-03T12:06:57.645Z,1.50
2023-04-03T12:09:36.867Z,1.90
2023-04-03T12:12:29.675Z,1.93
2023-04-03T12:14:57.569Z,1.80
2023-04-03T12:17:30.316Z,1.33
2023-04-03T12:19:58.092Z,1.60
2023-04-03T12:22:25.852Z,1.60
2023-04-03T12:24:55.487Z,1.53
2023-04-03T12:27:30.010Z,1.40
2023-04-03T12:30:04.473Z,1.87
2023-04-03T12:32:49.380Z,1.63
2023-04-03T12:35:27.177Z,1.80
2023-04-03T12:38:34.352Z,1.70
2023-04-03T12:41:19.883Z,1.93
2023-04-03T12:44:00.186Z,1.80
2023-04-03T12:46:36.696Z,1.57
2023-04-03T12:49:14.604Z,2.03
2023-04-03T12:51:44.312Z,1.73
2023-04-03T12:54:17.347Z,1.80
2023-04-03T12:56:46.440Z,2.20
2023-04-03T12:59:19.148Z,1.53
2023-04-03T13:01:56.142Z,2.10
2023-04-03T13:04:24.265Z,1.50
2023-04-03T13:06:52.561Z,1.90
2023-04-03T13:09:23.613Z,1.70
2023-04-03T13:11:58.385Z,1.70
2023-04-03T13:14:29.095Z,1.70
2023-04-03T13:16:58.143Z,3.20
2023-04-03T13:19:28.382Z,1.70
2023-04-03T13:22:02.590Z,2.10
2023-04-03T13:24:31.241Z,1.80
2023-04-03T13:27:00.386Z,1.50
2023-04-03T13:29:31.843Z,2.07
2023-04-03T13:32:01.478Z,1.73
2023-04-03T13:34:32.521Z,1.57
2023-04-03T13:37:05.250Z,1.60
2023-04-03T13:39:35.665Z,1.67
2023-04-03T13:42:18.036Z,1.40
2023-04-03T13:44:48.505Z,1.70
2023-04-03T13:47:20.007Z,1.63
2023-04-03T13:50:01.637Z,1.60
2023-04-03T13:52:33.485Z,1.80
2023-04-03T13:55:05.790Z,1.43
2023-04-03T13:57:37.154Z,1.60
2023-04-03T14:00:29.667Z,1.67
2023-04-03T14:02:59.039Z,1.90
2023-04-03T14:05:27.643Z,1.70
2023-04-03T14:07:56.237Z,1.40
2023-04-03T14:10:24.190Z,2.20
2023-04-03T14:12:53.270Z,1.40
2023-04-03T14:15:25.592Z,1.73
2023-04-03T14:17:54.107Z,1.60
2023-04-03T14:20:23.769Z,2.40
2023-04-03T14:22:52.165Z,2.20
2023-04-03T14:25:21.199Z,2.20
2023-04-03T14:27:51.410Z,2.23
2023-04-03T14:30:23.717Z,1.50
2023-04-03T14:32:52.127Z,1.60
2023-04-03T14:35:21.083Z,1.40
2023-04-03T14:37:53.153Z,1.40
2023-04-03T14:40:24.293Z,1.70
2023-04-03T14:42:52.249Z,1.47
2023-04-03T14:45:21.441Z,1.50
2023-04-03T14:47:52.618Z,1.90
2023-04-03T14:50:23.685Z,1.60
2023-04-03T14:52:54.530Z,1.27
2023-04-03T14:55:24.652Z,2.30
2023-04-03T14:57:52.807Z,1.80
2023-04-03T15:00:24.031Z,1.90
2023-04-03T15:02:52.463Z,2.00
2023-04-03T15:05:20.555Z,1.90
2023-04-03T15:07:51.959Z,1.50
2023-04-03T15:10:21.528Z,1.60
2023-04-03T15:12:50.796Z,1.60
2023-04-03T15:15:21.726Z,1.43
2023-04-03T15:17:54.890Z,1.33
2023-04-03T15:20:25.276Z,1.97
2023-04-03T15:22:53.079Z,1.97
2023-04-03T15:25:20.827Z,1.53
2023-04-03T15:27:48.897Z,2.03
2023-04-03T15:30:19.617Z,1.97
2023-04-03T15:32:49.382Z,1.77
2023-04-03T15:35:17.363Z,2.20
2023-04-03T15:37:45.232Z,2.00
2023-04-03T15:40:13.481Z,2.30
2023-04-03T15:42:41.742Z,1.63
2023-04-03T15:45:10.667Z,1.90
2023-04-03T15:47:38.794Z,1.70
2023-04-03T15:50:09.210Z,1.37
2023-04-03T15:52:37.304Z,2.00
2023-04-03T15:55:05.508Z,1.70
2023-04-03T16:00:00.908Z,1.87
2023-04-03T16:02:29.207Z,1.95
2023-04-03T16:04:57.508Z,1.70
2023-04-03T16:07:27.035Z,1.20
2023-04-03T16:09:54.795Z,1.70
2023-04-03T16:12:22.499Z,1.23
2023-04-03T16:14:50.288Z,1.30
2023-04-03T16:17:18.128Z,1.63
2023-04-03T16:19:45.849Z,1.63
2023-04-03T16:22:13.669Z,2.00
2023-04-03T16:24:42.803Z,1.73
2023-04-03T16:27:10.890Z,1.83
2023-04-03T16:29:38.623Z,1.80
2023-04-03T16:32:06.432Z,2.10
2023-04-03T16:34:34.317Z,1.60
2023-04-03T16:37:02.377Z,1.63
2023-04-03T16:39:30.318Z,1.77
2023-04-03T16:41:59.408Z,1.67
2023-04-03T16:44:27.201Z,1.87
2023-04-03T16:46:55.088Z,1.60
2023-04-03T16:49:22.891Z,1.90
2023-04-03T16:51:50.746Z,1.70
2023-04-03T16:54:18.590Z,1.80
2023-04-03T16:56:46.309Z,1.50
2023-04-03T16:59:15.548Z,2.13
2023-04-03T17:01:43.343Z,1.90
2023-04-03T17:04:11.250Z,2.23
2023-04-03T17:06:38.996Z,1.70
2023-04-03T17:09:07.416Z,1.90
2023-04-03T17:14:03.314Z,2.03
2023-04-03T17:16:34.267Z,1.70
2023-04-03T17:19:02.198Z,1.80
2023-04-03T17:21:29.930Z,1.90
2023-04-03T17:24:00.780Z,1.37
2023-04-03T17:26:29.221Z,1.80
2023-04-03T17:28:57.308Z,2.00
2023-04-03T17:31:25.104Z,1.50
2023-04-03T17:33:54.237Z,1.90
2023-04-03T17:36:22.062Z,1.80
2023-04-03T17:38:52.000Z,2.80
2023-04-03T17:41:19.751Z,2.20
2023-04-03T17:43:47.680Z,2.37
2023-04-03T17:46:16.724Z,2.30
2023-04-03T17:48:44.884Z,1.73
2023-04-03T17:51:16.291Z,2.30
2023-04-03T17:53:44.591Z,2.27
2023-04-03T17:56:15.183Z,2.43
2023-04-03T17:58:43.974Z,2.70
2023-04-03T18:01:13.313Z,2.30
2023-04-03T18:03:41.755Z,1.93
2023-04-03T18:06:14.194Z,2.13
2023-04-03T18:08:45.211Z,1.60
2023-04-03T18:11:14.016Z,2.77
2023-04-03T18:13:42.279Z,2.03
2023-04-03T18:16:12.109Z,2.57
2023-04-03T18:18:40.432Z,2.27
2023-04-03T18:21:10.601Z,2.17
2023-04-03T18:23:42.512Z,2.37
2023-04-03T18:26:11.859Z,2.40
2023-04-03T18:28:42.646Z,4.03
2023-04-03T18:31:13.172Z,2.63
2023-04-03T18:33:40.899Z,2.63
2023-04-03T18:36:09.120Z,2.80
2023-04-03T18:38:36.869Z,2.67
2023-04-03T18:41:09.254Z,2.50
2023-04-03T18:43:37.213Z,1.80
2023-04-03T18:46:06.112Z,2.70
2023-04-03T18:48:34.450Z,2.67
2023-04-03T18:51:02.698Z,2.20
2023-04-03T18:53:30.548Z,2.10
2023-04-03T18:55:58.322Z,2.37
2023-04-03T18:58:27.396Z,2.90
2023-04-03T19:00:55.348Z,2.90
2023-04-03T19:03:23.370Z,2.70
2023-04-03T19:05:51.241Z,2.20
2023-04-03T19:08:19.126Z,2.00
2023-04-03T19:10:46.878Z,2.60
2023-04-03T19:13:14.602Z,2.40
2023-04-03T19:15:44.613Z,1.90
2023-04-03T19:18:12.339Z,2.93
2023-04-03T19:20:40.118Z,3.10
2023-04-03T19:23:08.581Z,4.10
2023-04-03T19:25:36.446Z,3.70
2023-04-03T19:28:04.232Z,3.30
2023-04-03T19:30:32.743Z,3.03
2023-04-03T19:33:02.231Z,3.73
2023-04-03T19:35:30.010Z,3.40
2023-04-03T19:37:57.809Z,3.90
2023-04-03T19:40:28.910Z,4.60
2023-04-03T19:42:56.645Z,3.60
2023-04-03T19:45:26.282Z,3.43
2023-04-03T19:47:54.438Z,4.77
2023-04-03T19:50:23.540Z,3.50
2023-04-03T19:52:51.305Z,3.13
2023-04-03T19:55:19.127Z,3.07
2023-04-03T19:57:46.893Z,2.70
2023-04-03T20:00:15.541Z,3.10
2023-04-03T20:02:43.314Z,2.83
2023-04-03T20:05:12.125Z,2.00
2023-04-03T20:07:41.561Z,2.60
2023-04-03T20:10:11.930Z,2.57
2023-04-03T20:12:39.661Z,2.23
2023-04-03T20:15:08.996Z,3.00
2023-04-03T20:17:37.562Z,2.50
2023-04-03T20:20:06.669Z,3.20
2023-04-03T20:22:36.170Z,2.50
2023-04-03T20:25:06.911Z,2.50
2023-04-03T20:27:35.446Z,2.57
2023-04-03T20:30:04.250Z,2.20
2023-04-03T20:32:33.570Z,2.50
2023-04-03T20:35:04.233Z,2.57
2023-04-03T20:37:32.541Z,2.60
2023-04-03T20:40:00.341Z,2.77
2023-04-03T20:42:29.657Z,2.83
2023-04-03T20:44:57.467Z,2.37
2023-04-03T20:49:53.736Z,2.20
2023-04-03T20:52:21.552Z,2.27
2023-04-03T20:54:49.439Z,2.47
2023-04-03T20:57:17.631Z,2.43
2023-04-03T20:59:46.669Z,2.10
2023-04-03T21:02:15.566Z,2.80
2023-04-03T21:04:48.205Z,2.43
2023-04-03T21:07:54.356Z,2.80
2023-04-03T21:11:00.026Z,3.10
2023-04-03T21:14:05.412Z,3.57
2023-04-03T21:16:36.241Z,3.43
2023-04-03T21:19:15.694Z,3.20
2023-04-03T21:21:45.637Z,4.03
2023-04-03T21:24:17.495Z,3.57
2023-04-03T21:26:45.903Z,3.17
2023-04-03T21:29:14.070Z,3.07
2023-04-03T21:31:52.364Z,3.30
2023-04-03T21:34:23.479Z,3.10
2023-04-03T21:36:51.773Z,3.30
2023-04-03T21:39:19.749Z,3.10
2023-04-03T21:41:47.616Z,3.67
2023-04-03T21:44:15.859Z,3.20
2023-04-03T21:46:44.190Z,2.70
2023-04-03T21:49:12.083Z,3.07
2023-04-03T21:51:41.900Z,5.70
2023-04-03T21:54:09.606Z,2.93
2023-04-03T21:56:37.315Z,3.27
2023-04-03T21:59:05.290Z,3.90
2023-04-03T22:01:33.232Z,2.80
2023-04-03T22:04:02.437Z,3.87
2023-04-03T22:06:30.674Z,2.50
2023-04-03T22:08:59.778Z,3.30
2023-04-03T22:11:29.027Z,2.77
2023-04-03T22:13:56.968Z,2.47
2023-04-03T22:16:24.861Z,3.40
2023-04-03T22:18:53.441Z,3.03
2023-04-03T22:21:22.022Z,3.67
2023-04-03T22:23:50.014Z,2.50
2023-04-03T22:26:19.061Z,2.80
2023-04-03T22:28:48.336Z,2.60
2023-04-03T22:31:16.860Z,2.80
2023-04-03T22:33:46.122Z,2.67
2023-04-03T22:36:14.930Z,2.00
2023-04-03T22:38:43.994Z,2.63
2023-04-03T22:41:12.336Z,2.47
2023-04-03T22:43:42.475Z,2.30
2023-04-03T22:46:10.894Z,2.57
2023-04-03T22:48:42.173Z,2.80
2023-04-03T22:51:10.112Z,2.47
2023-04-03T22:53:38.766Z,3.20
2023-04-03T22:56:10.516Z,3.43
2023-04-03T22:58:38.867Z,2.53
2023-04-03T23:01:09.359Z,2.50
2023-04-03T23:03:38.379Z,2.90
2023-04-03T23:06:06.949Z,2.10
2023-04-03T23:08:35.512Z,2.70
2023-04-03T23:11:03.268Z,2.63
2023-04-03T23:13:31.035Z,2.60
2023-04-03T23:16:00.734Z,3.13
2023-04-03T23:18:32.498Z,2.73
2023-04-03T23:21:01.031Z,2.90
2023-04-03T23:23:28.756Z,3.07
2023-04-03T23:25:58.624Z,2.10
2023-04-03T23:28:26.468Z,3.17
2023-04-03T23:30:59.348Z,3.10
2023-04-03T23:33:27.121Z,3.30
2023-04-03T23:35:58.307Z,2.50
2023-04-03T23:38:26.458Z,3.03
2023-04-03T23:40:54.191Z,3.10
2023-04-03T23:43:21.897Z,3.37
2023-04-03T23:45:49.615Z,3.20
2023-04-03T23:48:18.057Z,2.73
2023-04-03T23:50:45.767Z,2.90
2023-04-03T23:53:14.797Z,3.13
2023-04-03T23:55:42.786Z,2.83
2023-04-03T23:58:11.669Z,2.80
